This is the latest recevied weather packets stored in our database for station/object SV4JYD-14. If no packets are shown the sender has not sent any weather packets the latest 10 day(s).
| Time | Temp. | Humidity | Pressure | Rain* | Wind** | Luminosity | Snow |
|---|---|---|---|---|---|---|---|
| 1777758954 | 10.56° C | 61% | 1015 hPa | 0 mm | - | - | - |
| 1777758054 | 10.56° C | 64% | 1015 hPa | 0 mm | - | - | - |
| 1777757153 | 10.56° C | 63% | 1016 hPa | 0 mm | - | - | - |
| 1777756253 | 10.56° C | 63% | 1016 hPa | 0 mm | - | - | - |
| 1777754452 | 10.56° C | 61% | 1015 hPa | 0 mm | - | - | - |
| 1777753552 | 10.56° C | 62% | 1016 hPa | 0 mm | - | - | - |
| 1777752652 | 10.56° C | 62% | 1016 hPa | 0 mm | - | - | - |
| 1777751752 | 10.56° C | 61% | 1015 hPa | 0 mm | - | - | - |
| 1777749951 | 10.56° C | 61% | 1016 hPa | 0 mm | - | - | - |
| 1777741642 | 11.67° C | 56% | 1016 hPa | 0 mm | - | - | - |
| 1777740742 | 11.67° C | 54% | 1015 hPa | 0 mm | - | - | - |
| 1777739841 | 12.22° C | 53% | 1015 hPa | 0 mm | - | - | - |
| 1777738041 | 12.22° C | 53% | 1015 hPa | 0 mm | - | - | - |
| 1777737141 | 12.78° C | 52% | 1015 hPa | 0 mm | - | - | - |
| 1777736240 | 12.78° C | 50% | 1015 hPa | 0 mm | - | - | - |
| 1777735340 | 12.78° C | 51% | 1015 hPa | 0 mm | - | - | - |
| 1777734440 | 12.78° C | 52% | 1015 hPa | 0 mm | - | - | - |
| 1777733540 | 12.78° C | 50% | 1015 hPa | 0 mm | - | - | - |
| 1777732639 | 12.78° C | 53% | 1015 hPa | 0 mm | - | - | - |
| 1777731739 | 13.33° C | 52% | 1015 hPa | 0 mm | - | - | - |
| 1777730839 | 13.89° C | 50% | 1015 hPa | 0 mm | - | - | - |
| 1777729938 | 13.89° C | 50% | 1015 hPa | 0 mm | - | - | - |
| 1777729038 | 14.44° C | 49% | 1015 hPa | 0 mm | - | - | - |
| 1777728143 | 13.89° C | 49% | 1016 hPa | 0 mm | - | - | - |
| 1777727238 | 13.33° C | 50% | 1016 hPa | 0 mm | - | - | - |
* Rain latest hour (hover to see other rain measurements)
** Current wind speed in m/s (hover to see current wind gust speed)